Time;durP1;ratioP1;P1;durP2;ratioP2;P2;SDS_P1;SDS_P2;PMS_P1;PMS_P2;Temp;Humidity;BMP_temperature;BMP_pressure;BME280_temperature;BME280_humidity;BME280_pressure;Samples;Min_cycle;Max_cycle;Signal;HPM_P1;HPM_P2
2022/10/05 00:01:23;;;;;;;4.75;2.97;;;;;;;8.05;87.07;97835.38;5045584;28;20057;-64
2022/10/05 00:03:57;;;;;;;3.47;3.10;;;;;;;8.01;87.59;97825.34;5045572;28;20060;-65
2022/10/05 00:06:28;;;;;;;5.03;2.85;;;;;;;7.98;87.36;97817.75;5045125;28;20072;-66
2022/10/05 00:08:55;;;;;;;5.10;3.03;;;;;;;7.92;87.01;97799.78;5043639;28;20136;-64
2022/10/05 00:11:22;;;;;;;3.85;2.95;;;;;;;7.30;87.26;97720.50;5045454;28;20048;-64
2022/10/05 00:13:48;;;;;;;3.20;2.60;;;;;;;7.45;88.23;97769.56;5043929;28;20135;-64
2022/10/05 00:16:19;;;;;;;3.00;2.65;;;;;;;7.79;88.55;97831.16;5045593;28;20057;-64
2022/10/05 00:18:51;;;;;;;5.03;3.15;;;;;;;7.14;89.21;97744.25;5044695;28;20064;-64
2022/10/05 00:21:24;;;;;;;6.93;3.10;;;;;;;7.72;89.00;97832.50;5045528;28;20057;-64
2022/10/05 00:23:54;;;;;;;6.18;3.13;;;;;;;7.52;88.76;97816.69;5045146;28;20091;-65
2022/10/05 00:26:23;;;;;;;4.35;3.17;;;;;;;7.65;88.37;97832.19;5043916;28;20086;-65
2022/10/05 00:28:51;;;;;;;6.55;3.10;;;;;;;6.50;88.06;97673.88;5045388;28;20068;-64
2022/10/05 00:31:19;;;;;;;6.60;3.40;;;;;;;7.42;88.77;97843.81;5043729;28;20083;-65
2022/10/05 00:33:47;;;;;;;4.35;3.30;;;;;;;7.32;89.52;97844.16;5043734;28;20048;-64
2022/10/05 00:36:14;;;;;;;4.50;3.60;;;;;;;6.74;90.05;97767.72;5043539;28;20088;-62
2022/10/05 00:38:41;;;;;;;6.68;3.47;;;;;;;7.29;91.28;97853.09;5044847;28;20087;-63
2022/10/05 00:41:33;;;;;;;5.25;3.17;;;;;;;7.29;91.86;97856.66;5045289;28;20088;-63
2022/10/05 00:44:02;;;;;;;9.77;4.25;;;;;;;7.44;91.73;97847.88;5044780;28;20513;-64
2022/10/05 00:46:41;;;;;;;9.10;3.50;;;;;;;7.49;91.69;97855.16;5045124;28;20135;-65
2022/10/05 00:49:20;;;;;;;7.80;4.30;;;;;;;7.52;91.53;97849.75;5043555;28;20063;-64
2022/10/05 00:51:59;;;;;;;4.72;3.50;;;;;;;7.46;91.47;97828.25;5044877;28;20538;-64
2022/10/05 00:54:59;;;;;;;4.07;2.92;;;;;;;6.94;90.87;97744.97;5044983;28;20490;-64
2022/10/05 00:58:03;;;;;;;3.45;2.88;;;;;;;7.68;90.33;97848.06;5045054;28;20118;-63
2022/10/05 01:00:35;;;;;;;3.83;3.13;;;;;;;7.51;90.12;97859.19;5044948;28;20107;-64
2022/10/05 01:03:11;;;;;;;3.63;3.00;;;;;;;7.53;90.39;97845.88;5043489;28;20076;-63
2022/10/05 01:05:58;;;;;;;4.20;3.33;;;;;;;7.34;90.43;97828.94;5043197;28;20064;-64
2022/10/05 01:08:37;;;;;;;3.50;3.20;;;;;;;7.52;90.25;97854.47;5045054;28;20499;-64
2022/10/05 01:11:18;;;;;;;3.72;3.20;;;;;;;7.43;89.91;97862.78;5043210;28;20056;-65
2022/10/05 01:14:11;;;;;;;5.38;3.20;;;;;;;7.27;90.27;97853.44;5044810;28;20495;-65
2022/10/05 01:17:00;;;;;;;4.25;2.70;;;;;;;7.42;90.00;97871.38;5042679;28;20143;-65
2022/10/05 01:19:26;;;;;;;3.38;2.92;;;;;;;7.43;90.63;97868.28;5043061;28;20144;-63
2022/10/05 01:22:04;;;;;;;5.97;3.17;;;;;;;6.66;90.82;97742.97;5044596;28;20060;-64
2022/10/05 01:24:48;;;;;;;5.95;3.28;;;;;;;7.14;92.17;97859.97;5043270;28;20122;-64
2022/10/05 01:27:30;;;;;;;4.90;3.25;;;;;;;7.15;92.41;97850.56;5043243;28;20123;-64
2022/10/05 01:30:11;;;;;;;4.40;3.17;;;;;;;6.96;92.12;97833.59;5044494;28;20091;-66
2022/10/05 01:32:40;;;;;;;4.93;2.92;;;;;;;7.11;92.18;97855.09;5047137;28;20140;-64
2022/10/05 01:35:37;;;;;;;5.40;3.10;;;;;;;7.01;92.67;97863.72;5048332;28;20592;-64
2022/10/05 01:38:21;;;;;;;4.32;2.95;;;;;;;7.02;93.39;97861.75;5048831;28;20056;-64
2022/10/05 01:41:00;;;;;;;3.30;2.85;;;;;;;6.58;93.79;97813.41;5048467;28;20128;-64
2022/10/05 01:43:26;;;;;;;4.20;3.03;;;;;;;6.86;93.51;97880.75;5046948;28;20103;-66
2022/10/05 01:45:59;;;;;;;4.47;2.85;;;;;;;6.92;92.86;97887.72;5046799;28;20065;-65
2022/10/05 01:48:38;;;;;;;2.83;2.45;;;;;;;6.80;92.14;97860.03;5046874;28;20053;-66
2022/10/05 01:51:19;;;;;;;3.83;3.42;;;;;;;6.90;91.50;97881.72;5048158;28;20099;-65
2022/10/05 01:53:51;;;;;;;5.38;3.63;;;;;;;6.45;91.40;97814.38;5048337;28;20111;-64
2022/10/05 01:56:35;;;;;;;5.40;3.13;;;;;;;6.96;90.94;97901.63;5046494;28;20091;-65
2022/10/05 01:59:17;;;;;;;4.80;3.30;;;;;;;6.78;91.53;97884.31;5048082;28;20061;-65
2022/10/05 02:01:57;;;;;;;5.85;3.30;;;;;;;6.74;91.47;97894.38;5048134;28;20067;-64
2022/10/05 02:04:37;;;;;;;5.32;3.42;;;;;;;6.45;92.48;97841.91;5048101;28;20057;-65
2022/10/05 02:07:28;;;;;;;6.00;4.35;;;;;;;6.29;91.77;97794.03;5047509;28;20053;-65
2022/10/05 02:10:07;;;;;;;4.75;3.25;;;;;;;6.78;92.22;97903.59;5047699;28;20323;-64
2022/10/05 02:12:36;;;;;;;5.20;3.30;;;;;;;6.75;92.79;97895.97;5047746;28;20140;-66
2022/10/05 02:15:16;;;;;;;5.78;3.35;;;;;;;6.87;91.42;97898.91;5046402;28;20095;-65
2022/10/05 02:17:47;;;;;;;6.20;3.15;;;;;;;6.47;91.93;97856.16;5047660;28;20152;-64
2022/10/05 02:20:22;;;;;;;5.85;3.50;;;;;;;6.85;91.86;97895.66;5047380;28;20531;-65
2022/10/05 02:22:53;;;;;;;4.70;3.53;;;;;;;6.92;91.24;97890.47;5047704;28;20088;-65
2022/10/05 02:25:22;;;;;;;4.60;4.07;;;;;;;6.87;91.48;97904.41;5047132;28;20498;-65
2022/10/05 02:27:55;;;;;;;4.75;3.53;;;;;;;6.67;92.70;97926.28;5043381;28;20094;-64
2022/10/05 02:30:22;;;;;;;6.53;3.83;;;;;;;6.76;92.80;97919.66;5045506;28;20048;-64
2022/10/05 02:33:04;;;;;;;6.20;3.83;;;;;;;6.72;92.27;97915.13;5047499;28;20118;-65
2022/10/05 02:35:31;;;;;;;6.63;4.57;;;;;;;6.23;91.98;97897.09;5047051;28;20076;-65
2022/10/05 02:38:18;;;;;;;6.88;3.42;;;;;;;6.52;91.36;97890.97;5045719;28;20608;-64
2022/10/05 02:41:03;;;;;;;5.00;3.80;;;;;;;6.72;91.97;97912.34;5046930;28;20080;-64
2022/10/05 02:43:33;;;;;;;5.57;3.10;;;;;;;6.71;93.14;97924.47;5044558;28;20084;-64
2022/10/05 02:46:03;;;;;;;4.30;3.90;;;;;;;6.75;92.52;97923.50;5045821;28;20091;-64
2022/10/05 02:48:42;;;;;;;8.02;6.18;;;;;;;6.69;91.97;97924.00;5045529;28;20052;-64
2022/10/05 02:51:26;;;;;;;8.10;5.60;;;;;;;6.60;91.82;97926.75;5046894;28;20532;-64
2022/10/05 02:53:59;;;;;;;7.22;6.10;;;;;;;6.58;92.86;97923.50;5045525;28;20140;-64
2022/10/05 02:56:53;;;;;;;6.93;5.20;;;;;;;6.47;93.02;97930.47;5045351;28;20072;-65
2022/10/05 02:59:22;;;;;;;;;;;;;;;6.48;93.07;97934.81;5046915;28;20053;-64
2022/10/05 03:01:54;;;;;;;7.43;5.47;;;;;;;5.94;94.38;97858.38;5046762;28;20018;-64
2022/10/05 03:04:42;;;;;;;6.97;3.53;;;;;;;6.44;95.03;97922.03;5045114;28;20425;-64
2022/10/05 03:07:31;;;;;;;5.38;3.75;;;;;;;6.40;96.05;97919.16;5045711;28;20532;-64
2022/10/05 03:10:32;;;;;;;4.50;3.00;;;;;;;6.42;94.96;97925.09;5044765;28;20087;-65
2022/10/05 03:13:05;;;;;;;4.35;2.83;;;;;;;6.41;94.51;97933.69;5025507;28;20056;-64
2022/10/05 03:15:40;;;;;;;5.15;3.50;;;;;;;6.44;95.82;97933.03;5046051;28;20854;-64
2022/10/05 03:18:10;;;;;;;5.32;2.72;;;;;;;6.61;93.63;97936.63;5046749;28;20053;-66
2022/10/05 03:21:01;;;;;;;5.70;3.53;;;;;;;6.55;93.28;97940.69;5046208;28;20061;-65
2022/10/05 03:23:47;;;;;;;8.77;4.20;;;;;;;6.15;92.70;97892.38;5046491;28;20531;-64
2022/10/05 03:26:29;;;;;;;7.10;5.20;;;;;;;6.34;92.08;97936.91;5044883;28;20527;-65
2022/10/05 03:29:29;;;;;;;9.27;4.53;;;;;;;6.33;93.28;97945.50;5044983;28;20119;-64
2022/10/05 03:32:10;;;;;;;5.82;3.92;;;;;;;6.11;94.19;97957.41;5046138;28;20130;-65
2022/10/05 03:34:45;;;;;;;5.40;3.28;;;;;;;5.77;95.08;97905.84;5046083;28;20538;-64
2022/10/05 03:37:30;;;;;;;5.70;3.70;;;;;;;5.84;95.71;97889.72;5044407;28;20102;-64
2022/10/05 03:40:06;;;;;;;6.75;4.15;;;;;;;5.86;95.74;97879.22;5046152;28;20049;-64
2022/10/05 03:43:04;;;;;;;7.65;5.53;;;;;;;6.30;94.95;97944.19;5046322;28;20055;-64
2022/10/05 03:46:01;;;;;;;8.35;6.63;;;;;;;6.32;94.13;97947.44;5044691;28;20612;-65
2022/10/05 03:48:34;;;;;;;6.93;5.65;;;;;;;6.32;93.60;97952.97;5046044;28;20486;-64
2022/10/05 03:51:13;;;;;;;8.83;5.50;;;;;;;6.26;93.61;97967.97;5045278;28;20567;-63
2022/10/05 03:53:46;;;;;;;6.88;5.25;;;;;;;5.94;94.65;97965.63;5045772;28;20056;-65
2022/10/05 03:56:17;;;;;;;;;;;;;;;5.98;95.54;97974.84;5046462;28;20110;-63
2022/10/05 03:59:07;;;;;;;9.15;5.20;;;;;;;5.94;95.00;97979.38;5044337;28;19932;-62
2022/10/05 04:02:11;;;;;;;10.27;5.55;;;;;;;5.91;95.09;97974.50;5045789;28;20115;-64
2022/10/05 04:04:55;;;;;;;7.97;5.25;;;;;;;5.29;97.09;97880.28;5039467;28;20096;-63
2022/10/05 04:07:42;;;;;;;8.02;5.40;;;;;;;5.98;97.25;97969.34;5044123;28;20731;-62
2022/10/05 04:10:20;;;;;;;8.52;5.88;;;;;;;6.00;97.67;97972.59;5045415;28;20059;-64
2022/10/05 04:12:55;;;;;;;9.05;5.50;;;;;;;6.13;96.36;97988.97;5045332;28;20057;-65
2022/10/05 04:15:35;;;;;;;12.55;6.68;;;;;;;6.20;95.30;97990.47;5045672;28;20526;-63
2022/10/05 04:18:21;;;;;;;13.05;7.90;;;;;;;6.10;93.61;97977.81;5045445;28;20573;-63
2022/10/05 04:20:52;;;;;;;12.57;7.90;;;;;;;5.73;93.95;97931.53;5044140;28;20053;-63
2022/10/05 04:23:32;;;;;;;14.32;8.60;;;;;;;5.82;93.44;97948.91;5045511;28;20084;-63
2022/10/05 04:26:10;;;;;;;13.07;8.45;;;;;;;6.12;93.20;97997.53;5045281;28;20317;-62
2022/10/05 04:29:00;;;;;;;15.57;8.70;;;;;;;6.19;93.77;97997.91;5044000;28;20118;-64
2022/10/05 04:31:47;;;;;;;9.90;6.57;;;;;;;6.21;93.65;98001.16;5044607;28;20091;-64
2022/10/05 04:34:45;;;;;;;11.98;6.60;;;;;;;6.13;93.71;97999.19;4860756;28;5001689;-63
2022/10/05 04:37:21;;;;;;;6.35;3.65;;;;;;;6.10;94.26;98005.31;5044441;28;20581;-63
2022/10/05 04:40:06;;;;;;;6.88;3.25;;;;;;;6.18;94.01;98007.25;5043601;28;20107;-63
2022/10/05 04:42:44;;;;;;;9.25;4.78;;;;;;;5.48;97.66;98003.66;5045139;28;20073;-63
2022/10/05 04:45:37;;;;;;;6.20;4.55;;;;;;;5.65;95.88;97992.78;5044699;28;20088;-63
2022/10/05 04:48:39;;;;;;;9.50;4.88;;;;;;;5.35;95.41;97927.63;5042774;28;20554;-64
2022/10/05 04:51:20;;;;;;;6.68;4.15;;;;;;;5.91;96.02;98008.28;5041288;28;20104;-63
2022/10/05 04:54:01;;;;;;;6.43;3.58;;;;;;;5.94;95.80;98013.16;5042925;28;20057;-65
2022/10/05 04:56:53;;;;;;;17.75;5.68;;;;;;;6.01;95.46;98020.94;5044421;28;20136;-64
2022/10/05 04:59:23;;;;;;;13.70;8.30;;;;;;;6.05;95.97;98013.72;5044256;28;20060;-65
2022/10/05 05:01:50;;;;;;;13.98;8.90;;;;;;;6.23;95.83;98014.59;5044315;28;20138;-63
2022/10/05 05:04:54;;;;;;;16.77;9.23;;;;;;;6.37;94.28;98009.78;5044042;28;20520;-64
2022/10/05 05:07:48;;;;;;;11.85;8.88;;;;;;;6.52;93.58;98017.56;5043981;28;20064;-64
2022/10/05 05:10:31;;;;;;;10.48;6.22;;;;;;;6.72;92.05;98017.75;5044271;28;20088;-64
2022/10/05 05:13:16;;;;;;;11.38;5.90;;;;;;;6.83;91.04;98027.34;5042618;28;20155;-63
2022/10/05 05:15:45;;;;;;;9.82;6.53;;;;;;;6.82;91.42;98039.50;5043859;28;20139;-63
2022/10/05 05:18:40;;;;;;;8.55;5.85;;;;;;;7.16;91.43;98039.50;5043932;28;20049;-67
2022/10/05 05:21:45;;;;;;;10.95;6.50;;;;;;;7.30;88.25;98045.66;5044032;28;20053;-66
2022/10/05 05:24:36;;;;;;;12.32;6.47;;;;;;;7.36;87.98;98049.91;5037753;28;20075;-67
2022/10/05 05:27:23;;;;;;;9.00;5.50;;;;;;;7.34;88.01;98060.44;5042162;28;20595;-64
2022/10/05 05:29:56;;;;;;;7.47;4.95;;;;;;;7.62;87.30;98061.72;5044104;28;20084;-65
2022/10/05 05:32:23;;;;;;;11.20;5.18;;;;;;;7.82;87.24;98064.91;5042780;28;20402;-65
2022/10/05 05:35:05;;;;;;;11.32;5.68;;;;;;;7.68;86.46;98021.78;5042316;28;20136;-64
2022/10/05 05:37:35;;;;;;;7.88;5.13;;;;;;;8.22;85.84;98056.03;5043770;28;20080;-65
2022/10/05 05:40:31;;;;;;;6.22;4.57;;;;;;;8.00;84.43;97992.03;5043691;28;20799;-65
2022/10/05 05:43:12;;;;;;;11.43;5.65;;;;;;;7.49;84.81;97980.00;5043779;28;20553;-64
2022/10/05 05:46:01;;;;;;;7.45;4.60;;;;;;;8.40;84.22;98052.13;5043787;28;20156;-65
2022/10/05 05:48:37;;;;;;;4.30;3.85;;;;;;;8.56;83.82;98066.16;5042899;28;20122;-63
2022/10/05 05:51:13;;;;;;;6.57;3.63;;;;;;;8.57;84.14;98067.78;5042493;28;20094;-64
2022/10/05 05:53:46;;;;;;;5.60;3.88;;;;;;;8.01;83.94;97927.41;5043746;28;20084;-65
2022/10/05 05:56:17;;;;;;;4.75;3.15;;;;;;;9.11;82.22;98064.03;5042192;28;20060;-65
2022/10/05 05:58:56;;;;;;;4.25;3.25;;;;;;;9.14;81.50;98030.19;5043421;28;20527;-64
2022/10/05 06:01:29;;;;;;;5.80;3.00;;;;;;;9.51;80.01;98056.09;5044141;28;20060;-64
2022/10/05 06:04:09;;;;;;;3.80;3.08;;;;;;;9.81;79.34;98068.66;5042562;28;20080;-65
2022/10/05 06:06:41;;;;;;;3.38;2.80;;;;;;;10.01;78.51;98068.63;5038472;28;20223;-62
2022/10/05 06:09:23;;;;;;;4.70;2.85;;;;;;;8.47;77.03;97825.19;5042552;28;20052;-70
2022/10/05 06:11:53;;;;;;;3.85;3.45;;;;;;;9.94;76.71;97985.31;5041330;28;20102;-71
2022/10/05 06:14:42;;;;;;;5.15;4.30;;;;;;;10.59;75.37;98073.84;5041636;28;20901;-65
2022/10/05 06:17:15;;;;;;;7.60;4.97;;;;;;;10.41;75.97;98071.63;5039748;28;20492;-66
2022/10/05 06:19:42;;;;;;;6.45;5.75;;;;;;;8.78;75.63;97829.13;5044870;28;20053;-66
2022/10/05 06:22:21;;;;;;;6.80;5.20;;;;;;;10.57;75.33;98081.66;5044708;28;20436;-71
2022/10/05 06:25:11;;;;;;;6.75;4.78;;;;;;;10.61;74.12;98045.78;5042943;28;20053;-67
2022/10/05 06:28:02;;;;;;;7.47;4.75;;;;;;;10.80;74.23;98070.13;5046379;28;20415;-67
2022/10/05 06:30:39;;;;;;;10.73;5.40;;;;;;;11.18;72.99;98073.34;5045416;28;20512;-66
2022/10/05 06:33:43;;;;;;;19.02;6.63;;;;;;;11.52;72.87;98089.47;5035732;28;20534;-71
2022/10/05 06:36:28;;;;;;;;;;;;;;;11.38;73.22;98080.72;5033074;28;20052;-67
2022/10/05 06:39:23;;;;;;;9.73;5.13;;;;;;;11.50;72.03;98083.44;5044849;28;19928;-69
2022/10/05 06:42:07;;;;;;;7.63;4.75;;;;;;;11.86;71.79;98077.81;5046694;28;20099;-65
2022/10/05 06:44:58;;;;;;;6.78;4.72;;;;;;;12.23;70.58;98082.03;5045803;28;20659;-63
2022/10/05 06:47:54;;;;;;;8.13;4.00;;;;;;;12.61;69.00;98087.81;5045275;28;20130;-69
2022/10/05 06:50:39;;;;;;;7.43;4.07;;;;;;;12.86;66.28;98088.44;5044270;28;20084;-63
2022/10/05 06:53:39;;;;;;;11.88;4.22;;;;;;;11.03;65.59;97805.13;5046272;28;20105;-66
2022/10/05 06:56:16;;;;;;;6.90;4.65;;;;;;;12.42;66.59;98045.22;5044462;28;20508;-64
2022/10/05 06:59:01;;;;;;;4.63;3.95;;;;;;;13.00;65.85;98089.63;5046664;28;20122;-65
2022/10/05 07:01:52;;;;;;;9.88;4.50;;;;;;;12.81;64.67;98008.88;5045890;28;20485;-70
2022/10/05 07:04:44;;;;;;;10.32;5.28;;;;;;;13.75;63.93;98087.38;5046283;28;20061;-69
2022/10/05 07:07:22;;;;;;;9.73;3.88;;;;;;;13.43;64.01;98103.38;5043211;28;20155;-66
2022/10/05 07:10:06;;;;;;;7.10;4.20;;;;;;;13.75;64.29;98092.94;5045201;28;20061;-70
2022/10/05 07:12:42;;;;;;;11.60;5.15;;;;;;;14.10;62.59;98090.88;5043917;28;20061;-69
2022/10/05 07:15:38;;;;;;;7.68;4.22;;;;;;;14.31;61.71;98091.31;5045269;28;20103;-62
2022/10/05 07:18:11;;;;;;;13.45;4.00;;;;;;;14.63;60.80;98084.38;5030286;28;20107;-68
2022/10/05 07:21:04;;;;;;;7.67;3.97;;;;;;;14.17;60.40;97998.25;5046070;28;20087;-72
2022/10/05 07:23:56;;;;;;;8.63;3.92;;;;;;;13.07;59.81;97769.88;5043239;28;20052;-64
2022/10/05 07:26:37;;;;;;;5.45;3.72;;;;;;;15.31;58.74;98087.09;5051197;28;20049;-69
2022/10/05 07:29:33;;;;;;;4.20;3.13;;;;;;;14.67;56.65;97934.63;5045369;28;20056;-64
2022/10/05 07:32:21;;;;;;;5.55;4.32;;;;;;;15.71;55.61;98064.16;5045813;28;20122;-63
2022/10/05 07:34:59;;;;;;;5.70;3.63;;;;;;;16.06;55.75;98084.94;5044013;28;20084;-63
2022/10/05 07:37:56;;;;;;;3.55;2.97;;;;;;;16.22;54.74;98082.75;5045677;28;20147;-63
2022/10/05 07:40:32;;;;;;;3.10;2.90;;;;;;;16.47;52.35;98083.84;5045224;28;20139;-68
2022/10/05 07:43:14;;;;;;;3.67;2.70;;;;;;;16.67;52.34;98086.47;5045871;28;20102;-66
2022/10/05 07:45:43;;;;;;;8.40;4.75;;;;;;;16.99;51.16;98081.97;5045409;28;20166;-67
2022/10/05 07:48:44;;;;;;;7.22;4.15;;;;;;;16.07;48.63;98002.72;5044378;28;20172;-68
2022/10/05 07:51:28;;;;;;;5.45;3.72;;;;;;;16.75;48.51;98076.94;5025495;28;20116;-66
2022/10/05 07:54:14;;;;;;;12.85;3.92;;;;;;;16.69;48.46;98081.28;5026212;28;20045;-63
2022/10/05 07:56:48;;;;;;;12.05;4.38;;;;;;;16.75;49.30;98090.94;5043070;28;20053;-67
2022/10/05 07:59:35;;;;;;;3.17;2.53;;;;;;;16.27;47.62;97964.97;5032166;28;20045;-69
2022/10/05 08:02:16;;;;;;;2.70;2.50;;;;;;;17.00;45.22;98106.78;5043984;28;20081;-64
2022/10/05 08:04:56;;;;;;;2.85;2.65;;;;;;;17.34;44.70;98082.25;5045154;28;20458;-63
2022/10/05 08:07:23;;;;;;;2.38;2.20;;;;;;;17.21;44.02;98044.53;5043964;28;20177;-60
2022/10/05 08:09:52;;;;;;;6.07;3.20;;;;;;;16.77;44.26;98007.41;5043285;28;20126;-64
2022/10/05 08:12:36;;;;;;;35.03;6.53;;;;;;;17.12;45.60;98086.09;5047915;28;20156;-63
2022/10/05 08:15:25;;;;;;;8.98;3.80;;;;;;;17.49;44.42;98090.38;5043664;28;20053;-65
2022/10/05 08:17:59;;;;;;;4.13;2.50;;;;;;;17.26;44.01;98041.38;5044963;28;20139;-62
2022/10/05 08:20:53;;;;;;;2.97;2.78;;;;;;;17.50;43.88;98063.16;5027219;28;20101;-66
2022/10/05 08:23:34;;;;;;;2.97;2.42;;;;;;;18.01;43.24;98083.47;5035360;28;20431;-69
2022/10/05 08:26:46;;;;;;;3.28;2.80;;;;;;;18.14;42.35;98087.53;5043964;28;20527;-69
2022/10/05 08:29:32;;;;;;;4.55;3.10;;;;;;;18.27;42.26;98086.00;5040256;28;20091;-66
2022/10/05 08:32:11;;;;;;;3.63;3.33;;;;;;;18.26;41.79;98050.69;5043670;28;20549;-62
2022/10/05 08:34:54;;;;;;;2.97;2.78;;;;;;;18.67;41.98;98068.88;5044574;28;20137;-64
2022/10/05 08:37:26;;;;;;;5.57;2.67;;;;;;;18.24;41.38;97988.56;5043022;28;20053;-61
2022/10/05 08:40:21;;;;;;;2.67;2.47;;;;;;;18.92;41.91;98072.50;5043766;28;20122;-63
2022/10/05 08:43:07;;;;;;;2.80;2.60;;;;;;;18.74;40.04;98038.00;5043796;28;20048;-60
2022/10/05 08:45:53;;;;;;;2.75;2.55;;;;;;;18.26;40.39;97960.94;5044727;28;20083;-64
2022/10/05 08:48:42;;;;;;;2.78;2.58;;;;;;;19.15;40.10;98072.94;5044295;28;20075;-64
2022/10/05 08:51:30;;;;;;;5.45;3.03;;;;;;;19.23;40.44;98066.09;5021377;28;20133;-68
2022/10/05 08:53:57;;;;;;;3.00;2.80;;;;;;;19.40;39.15;98070.94;5024263;28;20068;-68
2022/10/05 08:56:50;;;;;;;3.63;3.25;;;;;;;19.42;39.62;98065.72;5028328;28;20090;-65
2022/10/05 08:59:39;;;;;;;2.90;2.72;;;;;;;18.50;39.06;97892.84;5044006;28;20350;-67
2022/10/05 09:02:22;;;;;;;2.95;2.50;;;;;;;19.43;39.29;98070.13;5024610;28;20061;-61
2022/10/05 09:05:17;;;;;;;3.72;3.42;;;;;;;19.30;40.17;98071.72;5025831;28;20182;-66
2022/10/05 09:08:03;;;;;;;3.78;3.17;;;;;;;18.66;40.28;98067.28;5042730;28;20060;-68
2022/10/05 09:10:48;;;;;;;2.70;2.60;;;;;;;18.37;41.49;98068.38;5035992;28;20049;-72
2022/10/05 09:13:53;;;;;;;2.67;2.47;;;;;;;18.78;41.06;98069.69;5041036;28;20129;-68
2022/10/05 09:16:37;;;;;;;2.90;2.70;;;;;;;19.09;40.46;98071.72;5024664;28;20088;-63
2022/10/05 09:19:22;;;;;;;3.00;2.80;;;;;;;19.19;40.95;98075.75;5040296;28;20747;-68
2022/10/05 09:21:52;;;;;;;3.75;2.80;;;;;;;19.28;40.75;98074.13;5043798;28;20672;-67
2022/10/05 09:24:34;;;;;;;3.40;3.20;;;;;;;19.43;40.73;98064.50;5042303;28;20507;-66
2022/10/05 09:27:14;;;;;;;3.20;2.90;;;;;;;19.74;40.55;98073.28;5044159;28;20139;-66
2022/10/05 09:30:04;;;;;;;3.05;2.75;;;;;;;19.80;40.10;98066.84;5043088;28;20478;-68
2022/10/05 09:32:39;;;;;;;3.03;2.83;;;;;;;19.92;39.52;98068.38;5042082;28;20605;-67
2022/10/05 09:35:43;;;;;;;3.17;2.97;;;;;;;20.14;40.39;98069.97;5043813;28;20067;-68
2022/10/05 09:38:22;;;;;;;3.17;2.88;;;;;;;20.21;41.24;98064.28;5042389;28;20160;-66
2022/10/05 09:41:26;;;;;;;3.38;3.08;;;;;;;20.39;41.04;98065.03;5042523;28;20431;-68
2022/10/05 09:44:11;;;;;;;64.95;34.53;;;;;;;19.62;41.39;98065.28;5043941;28;20491;-68
2022/10/05 09:46:43;;;;;;;3.05;1.35;;;;;;;19.32;41.62;98074.13;5043141;28;20429;-67
2022/10/05 09:49:38;;;;;;;23.65;9.50;;;;;;;19.49;41.65;98074.13;5043617;28;20798;-67
2022/10/05 09:52:20;;;;;;;7.00;3.15;;;;;;;18.60;41.14;97855.56;5045554;28;20492;-68
2022/10/05 09:55:04;;;;;;;7.35;3.75;;;;;;;19.69;41.64;98071.69;5047705;28;20654;-67
2022/10/05 09:57:50;;;;;;;2.08;1.33;;;;;;;19.42;42.15;98068.53;5046089;28;20585;-68
2022/10/05 10:00:23;;;;;;;8.48;3.90;;;;;;;19.04;42.56;98065.69;5047083;28;20520;-65
2022/10/05 10:03:19;;;;;;;10.77;4.30;;;;;;;18.29;43.15;97971.34;5047271;28;20064;-68
2022/10/05 10:06:09;;;;;;;15.73;8.10;;;;;;;19.15;42.77;98075.75;5045895;28;20067;-67
2022/10/05 10:09:12;;;;;;;6.95;3.70;;;;;;;18.91;43.12;98070.09;5047288;28;20048;-66
2022/10/05 10:12:10;;;;;;;4.57;1.48;;;;;;;18.61;43.27;98072.47;5046912;28;20126;-68
2022/10/05 10:14:48;;;;;;;3.63;2.85;;;;;;;19.23;42.22;98062.47;5026998;28;20137;-68
2022/10/05 10:17:14;;;;;;;5.82;2.00;;;;;;;19.49;41.81;98074.13;5027689;28;20477;-67
2022/10/05 10:19:56;;;;;;;2.35;1.50;;;;;;;19.34;41.67;98078.16;5025617;28;20144;-63
2022/10/05 10:22:51;;;;;;;2.15;1.30;;;;;;;18.96;42.26;98073.31;5027297;28;20578;-63
2022/10/05 10:25:33;;;;;;;2.55;1.77;;;;;;;19.11;42.28;98080.53;5026830;28;20058;-63
2022/10/05 10:28:12;;;;;;;1.55;1.45;;;;;;;19.28;42.41;98068.50;5025953;28;20526;-63
2022/10/05 10:30:57;;;;;;;2.25;1.70;;;;;;;20.14;41.09;98064.34;5026813;28;20061;-62
2022/10/05 10:33:43;;;;;;;2.92;1.58;;;;;;;20.09;39.98;98068.31;5027540;28;20049;-67
2022/10/05 10:36:21;;;;;;;4.93;1.40;;;;;;;19.10;41.70;98039.63;5026668;28;20089;-67
2022/10/05 10:39:15;;;;;;;5.97;1.52;;;;;;;19.54;41.24;97988.56;5026517;28;20053;-67
2022/10/05 10:42:30;;;;;;;1.35;1.30;;;;;;;21.13;38.68;98059.72;5016214;28;20052;-68
2022/10/05 10:45:15;;;;;;;2.83;1.50;;;;;;;21.21;38.70;98060.47;5025454;28;20152;-65
2022/10/05 10:47:55;;;;;;;3.38;1.90;;;;;;;20.91;39.35;98058.25;5046554;28;20096;-67
2022/10/05 10:50:22;;;;;;;2.03;1.83;;;;;;;20.95;38.20;98061.84;5046741;28;20061;-65
2022/10/05 10:53:26;;;;;;;2.15;1.95;;;;;;;20.07;40.10;98058.69;5046421;28;20083;-61
2022/10/05 10:56:12;;;;;;;5.70;2.75;;;;;;;19.14;39.62;97863.44;5046662;28;20049;-65
2022/10/05 10:59:10;;;;;;;5.72;2.53;;;;;;;19.87;40.71;98061.19;5045881;28;20053;-66
2022/10/05 11:02:01;;;;;;;3.63;1.92;;;;;;;19.65;41.59;98058.84;5045617;28;20099;-65
2022/10/05 11:04:54;;;;;;;4.72;1.63;;;;;;;19.99;41.26;98054.31;5044682;28;20048;-63
2022/10/05 11:07:39;;;;;;;2.28;1.30;;;;;;;19.88;41.67;98050.75;5045892;28;20131;-67
2022/10/05 11:10:24;;;;;;;1.90;1.70;;;;;;;20.38;40.57;98046.50;5047555;28;20088;-69
2022/10/05 11:13:13;;;;;;;2.63;1.30;;;;;;;20.50;40.60;98048.88;5024746;28;20088;-64
2022/10/05 11:16:10;;;;;;;3.00;1.70;;;;;;;20.51;38.92;98047.66;5025221;28;20465;-73
2022/10/05 11:19:03;;;;;;;3.33;1.40;;;;;;;20.50;38.51;98037.63;5026210;28;20061;-68
2022/10/05 11:21:55;;;;;;;4.20;1.60;;;;;;;20.68;38.72;98032.66;5018088;28;20059;-64
2022/10/05 11:24:38;;;;;;;4.63;1.70;;;;;;;20.66;38.87;98023.84;5022309;28;20199;-64
2022/10/05 11:27:18;;;;;;;1.63;1.52;;;;;;;19.62;39.73;97958.47;5041407;28;20065;-68
2022/10/05 11:30:24;;;;;;;2.28;1.50;;;;;;;19.77;40.64;98035.91;5025967;28;20049;-63
2022/10/05 11:33:10;;;;;;;6.68;2.17;;;;;;;20.28;40.13;98024.88;5027423;28;20080;-64
2022/10/05 11:35:45;;;;;;;3.22;1.77;;;;;;;20.47;38.96;98021.56;5025342;28;20111;-67
2022/10/05 11:38:53;;;;;;;1.95;1.13;;;;;;;19.45;41.30;98031.19;5025969;28;20107;-61
2022/10/05 11:41:31;;;;;;;2.20;1.63;;;;;;;19.68;41.10;98022.25;5025599;28;20091;-62
2022/10/05 11:44:19;;;;;;;1.92;1.40;;;;;;;20.29;40.60;98060.25;5025578;28;20076;-65
2022/10/05 11:47:23;;;;;;;2.95;1.92;;;;;;;19.37;39.94;97894.69;5024222;28;20111;-65
2022/10/05 11:50:16;;;;;;;2.10;1.50;;;;;;;19.96;40.32;98021.38;5033629;28;20076;-64
2022/10/05 11:53:05;;;;;;;3.22;1.77;;;;;;;19.92;40.78;97989.63;5045313;28;20118;-66
2022/10/05 11:55:59;;;;;;;3.10;1.60;;;;;;;19.93;41.24;98019.38;5044786;28;20520;-62
2022/10/05 11:58:32;;;;;;;2.00;1.20;;;;;;;19.53;42.13;98034.78;5045531;28;20131;-65
2022/10/05 12:01:33;;;;;;;3.03;1.50;;;;;;;20.18;40.53;97986.34;5040607;28;20139;-64
2022/10/05 12:04:51;;;;;;;2.50;1.50;;;;;;;19.92;40.47;98007.31;5045129;28;20137;-62
2022/10/05 12:07:43;;;;;;;3.97;1.50;;;;;;;19.99;40.99;97984.00;5011968;28;20140;-62
2022/10/05 12:10:33;;;;;;;3.05;1.80;;;;;;;20.16;40.23;97952.97;5024936;28;20136;-61
2022/10/05 12:13:00;;;;;;;2.50;1.40;;;;;;;20.61;40.12;98005.34;5025359;28;20120;-67
2022/10/05 12:15:46;;;;;;;2.20;1.70;;;;;;;20.77;39.66;98002.03;5039711;28;20064;-63
2022/10/05 12:18:22;;;;;;;3.53;1.80;;;;;;;20.91;39.28;97996.28;5044971;28;20126;-63
2022/10/05 12:20:53;;;;;;;3.05;1.80;;;;;;;20.75;39.46;97993.19;5039072;28;20519;-63
2022/10/05 12:23:23;;;;;;;2.83;1.80;;;;;;;20.87;38.37;97992.69;5025204;28;20049;-61
2022/10/05 12:25:59;;;;;;;1.85;1.40;;;;;;;20.49;39.06;97985.31;5024652;28;20060;-62
2022/10/05 12:28:48;;;;;;;1.88;1.42;;;;;;;20.47;39.63;97990.59;5034534;28;20516;-61
2022/10/05 12:31:26;;;;;;;2.65;1.50;;;;;;;20.66;39.30;97998.50;5042912;28;20049;-65
2022/10/05 12:33:59;;;;;;;1.20;1.10;;;;;;;19.73;40.69;97998.59;5042913;28;20061;-61
2022/10/05 12:36:36;;;;;;;3.40;1.50;;;;;;;19.79;40.52;97994.13;5044225;28;20133;-62
2022/10/05 12:39:47;;;;;;;4.13;1.80;;;;;;;19.98;40.96;98000.06;5044299;28;20049;-62
2022/10/05 12:42:39;;;;;;;2.47;1.88;;;;;;;20.17;41.19;98001.63;5041815;28;20127;-63
2022/10/05 12:45:29;;;;;;;4.50;1.60;;;;;;;19.93;40.82;98005.31;5040257;28;20071;-61
2022/10/05 12:48:11;;;;;;;2.65;1.23;;;;;;;19.48;41.50;98009.88;5042787;28;20050;-67
2022/10/05 12:50:45;;;;;;;2.67;2.47;;;;;;;18.63;41.36;97880.03;5043128;28;20520;-68